Time;durP1;ratioP1;P1;durP2;ratioP2;P2;SDS_P1;SDS_P2;PMS_P1;PMS_P2;Temp;Humidity;BMP_temperature;BMP_pressure;BME280_temperature;BME280_humidity;BME280_pressure;Samples;Min_cycle;Max_cycle;Signal;HPM_P1;HPM_P2
2020/12/31 08:23:02;;;;;;;0.93;0.20;;;19.30;50.40;;;;;;5024769;23;20587;31
2020/12/31 08:25:36;;;;;;;0.30;0.30;;;19.30;50.40;;;;;;4931522;29;20371;-52
2020/12/31 08:28:06;;;;;;;3.03;0.30;;;19.30;50.30;;;;;;4939414;29;20040;-53
2020/12/31 08:30:34;;;;;;;2.05;0.60;;;19.30;50.40;;;;;;4939355;29;20135;-51
2020/12/31 08:33:02;;;;;;;1.58;0.40;;;19.30;50.40;;;;;;4939282;29;20042;-53
2020/12/31 08:35:33;;;;;;;1.67;0.35;;;19.30;50.40;;;;;;4939366;29;20054;-52
2020/12/31 08:38:03;;;;;;;3.35;0.63;;;19.30;50.30;;;;;;4939291;29;20350;-51
2020/12/31 08:40:30;;;;;;;1.55;0.50;;;19.40;50.20;;;;;;4939352;29;20087;-51
2020/12/31 08:42:56;;;;;;;1.95;0.38;;;19.40;50.00;;;;;;4938674;29;20391;-51
2020/12/31 08:45:40;;;;;;;1.50;0.40;;;19.40;49.50;;;;;;4938991;29;20038;-52
2020/12/31 08:48:13;;;;;;;3.83;0.82;;;19.40;49.20;;;;;;4939421;29;20040;-50
2020/12/31 08:50:39;;;;;;;9.73;1.20;;;19.40;49.40;;;;;;4938747;29;20067;-48
2020/12/31 08:53:04;;;;;;;8.13;1.40;;;19.40;49.70;;;;;;4939257;29;20032;-49
2020/12/31 08:55:34;;;;;;;6.10;1.42;;;19.50;50.00;;;;;;4938874;29;20047;-52
2020/12/31 08:58:15;;;;;;;3.72;1.30;;;19.60;50.30;;;;;;4938844;29;20039;-49
2020/12/31 09:00:41;;;;;;;4.28;1.48;;;19.60;50.30;;;;;;4938434;29;20542;-51
2020/12/31 09:03:07;;;;;;;2.75;1.38;;;19.70;50.40;;;;;;4938444;29;20032;-49
2020/12/31 09:05:33;;;;;;;2.88;1.40;;;19.70;50.30;;;;;;4938424;29;20040;-48
2020/12/31 09:08:07;;;;;;;6.30;1.55;;;19.80;50.30;;;;;;4938394;29;20388;-49
2020/12/31 09:10:34;;;;;;;3.95;1.50;;;19.80;50.50;;;;;;4938225;29;20043;-46
2020/12/31 09:13:00;;;;;;;8.88;1.73;;;19.80;50.30;;;;;;4938315;29;20059;-49
2020/12/31 09:15:26;;;;;;;5.15;1.00;;;19.80;50.00;;;;;;4938296;29;20473;-48
2020/12/31 09:17:52;;;;;;;8.13;1.52;;;19.90;50.00;;;;;;4938507;29;20110;-48
2020/12/31 09:20:20;;;;;;;6.32;1.30;;;19.90;50.00;;;;;;4938388;29;20090;-48
2020/12/31 09:22:45;;;;;;;2.50;1.17;;;19.90;49.80;;;;;;4938483;29;20035;-51
2020/12/31 09:25:12;;;;;;;8.30;1.55;;;20.00;49.80;;;;;;4938657;29;20074;-49
2020/12/31 09:27:38;;;;;;;3.22;1.48;;;19.90;49.70;;;;;;4938067;29;20031;-51
2020/12/31 09:30:06;;;;;;;8.85;1.50;;;20.00;49.80;;;;;;4938231;29;20027;-51
2020/12/31 09:32:32;;;;;;;4.93;1.30;;;20.00;49.90;;;;;;4938627;29;20450;-48
2020/12/31 09:34:58;;;;;;;3.50;1.00;;;20.00;49.90;;;;;;4938141;29;20042;-49
2020/12/31 09:37:23;;;;;;;1.95;0.80;;;20.10;50.00;;;;;;4938126;29;20435;-47
2020/12/31 09:39:49;;;;;;;6.53;0.90;;;20.10;50.00;;;;;;4938093;29;20036;-44
2020/12/31 09:42:14;;;;;;;3.10;1.40;;;20.10;50.00;;;;;;4937556;29;20123;-49
2020/12/31 09:44:40;;;;;;;7.93;1.05;;;20.10;50.20;;;;;;4921408;29;20044;-45
2020/12/31 09:47:07;;;;;;;6.45;1.63;;;20.10;50.20;;;;;;4938065;29;20036;-46
2020/12/31 09:49:33;;;;;;;5.10;1.40;;;20.20;50.30;;;;;;4937985;29;20032;-50
2020/12/31 09:51:59;;;;;;;8.45;1.75;;;20.20;50.40;;;;;;4937876;29;20378;-47
2020/12/31 09:54:26;;;;;;;16.92;2.17;;;20.20;51.20;;;;;;4937876;29;20051;-46
2020/12/31 09:56:51;;;;;;;11.60;1.80;;;20.20;50.70;;;;;;4937561;29;20043;-50
2020/12/31 09:59:17;;;;;;;4.45;1.30;;;20.20;50.60;;;;;;4937852;29;20064;-47
2020/12/31 10:01:44;;;;;;;3.38;1.55;;;20.30;50.60;;;;;;4937970;29;20031;-49
2020/12/31 10:04:10;;;;;;;7.65;1.38;;;20.30;50.50;;;;;;4937748;29;20032;-49
2020/12/31 10:06:35;;;;;;;1.58;0.95;;;20.30;50.50;;;;;;4937962;29;20423;-47
2020/12/31 10:09:01;;;;;;;6.65;1.33;;;20.30;50.50;;;;;;4937601;29;20035;-48
2020/12/31 10:11:28;;;;;;;5.07;1.42;;;20.40;50.50;;;;;;4937394;29;20086;-47
2020/12/31 10:13:54;;;;;;;5.25;1.35;;;20.40;50.60;;;;;;4937581;29;20347;-46
2020/12/31 10:16:19;;;;;;;7.25;1.70;;;20.40;50.50;;;;;;4937976;29;20039;-47
2020/12/31 10:18:45;;;;;;;2.22;1.75;;;20.40;50.40;;;;;;4937282;29;20043;-48
2020/12/31 10:21:13;;;;;;;3.67;1.50;;;20.50;50.60;;;;;;4937790;29;20378;-51
2020/12/31 10:23:38;;;;;;;3.85;1.70;;;20.60;50.50;;;;;;4937709;29;20058;-47
2020/12/31 10:26:04;;;;;;;6.85;1.30;;;20.70;50.60;;;;;;4937380;29;20047;-47
2020/12/31 10:28:29;;;;;;;5.20;1.30;;;20.70;50.60;;;;;;4937634;29;20130;-48
2020/12/31 10:30:55;;;;;;;3.35;1.60;;;20.80;50.60;;;;;;4937127;29;20058;-45
2020/12/31 10:33:20;;;;;;;3.28;1.20;;;20.90;50.60;;;;;;4937266;29;20044;-49
2020/12/31 10:35:46;;;;;;;5.72;1.33;;;20.90;50.60;;;;;;4940325;29;20071;-46
2020/12/31 10:38:11;;;;;;;5.85;1.33;;;21.00;50.60;;;;;;4941318;29;20118;-48
2020/12/31 10:40:37;;;;;;;3.40;1.17;;;21.10;50.70;;;;;;4941075;29;20036;-48
2020/12/31 10:43:02;;;;;;;8.43;1.73;;;21.10;50.70;;;;;;4941325;29;20047;-50
2020/12/31 10:45:28;;;;;;;5.60;1.65;;;21.20;50.70;;;;;;4941555;29;20426;-47
2020/12/31 10:47:53;;;;;;;7.82;1.40;;;21.20;50.70;;;;;;4940939;29;20036;-46
2020/12/31 10:50:19;;;;;;;4.60;1.35;;;21.30;50.80;;;;;;4940915;29;20058;-45
2020/12/31 10:52:44;;;;;;;4.22;1.30;;;21.30;50.80;;;;;;4940791;29;20040;-46
2020/12/31 10:55:10;;;;;;;1.98;1.10;;;21.40;50.90;;;;;;4940947;29;20106;-48
2020/12/31 10:57:36;;;;;;;4.93;0.95;;;21.50;50.90;;;;;;4940947;29;20087;-46
2020/12/31 11:00:01;;;;;;;4.63;0.95;;;21.40;50.90;;;;;;4940968;29;20362;-47
2020/12/31 11:02:27;;;;;;;4.63;1.10;;;21.50;50.90;;;;;;4940918;29;20059;-50
2020/12/31 11:04:52;;;;;;;2.05;1.00;;;21.50;51.00;;;;;;4941283;29;20079;-51
2020/12/31 11:07:18;;;;;;;3.60;1.02;;;21.50;50.40;;;;;;4940881;29;20115;-48
2020/12/31 11:09:43;;;;;;;5.03;1.40;;;21.50;50.50;;;;;;4940702;29;20036;-49
2020/12/31 11:12:09;;;;;;;5.38;1.70;;;21.60;50.50;;;;;;4940677;29;20419;-46
2020/12/31 11:14:34;;;;;;;4.55;1.23;;;21.60;50.20;;;;;;4940367;29;20032;-52
2020/12/31 11:16:59;;;;;;;1.95;1.15;;;21.60;50.40;;;;;;4940761;29;20039;-53
2020/12/31 11:19:26;;;;;;;2.33;1.30;;;21.60;50.50;;;;;;4940851;29;20031;-53
2020/12/31 11:21:52;;;;;;;2.08;1.38;;;21.60;50.40;;;;;;4940837;29;20035;-49
2020/12/31 11:24:18;;;;;;;7.75;1.00;;;21.60;50.30;;;;;;4940299;29;20063;-47
2020/12/31 11:26:44;;;;;;;4.55;1.33;;;21.70;50.10;;;;;;4940060;29;20035;-48
2020/12/31 11:29:10;;;;;;;1.40;0.90;;;21.70;50.10;;;;;;4940899;29;20415;-50
2020/12/31 11:31:36;;;;;;;4.82;1.05;;;21.70;50.00;;;;;;4939983;29;20494;-48
2020/12/31 11:34:01;;;;;;;5.57;1.42;;;21.70;50.00;;;;;;4940408;29;20063;-49
2020/12/31 11:36:28;;;;;;;6.18;1.38;;;21.80;50.10;;;;;;4940304;29;20046;-52
2020/12/31 11:38:55;;;;;;;3.50;1.73;;;21.80;49.90;;;;;;4940247;29;20091;-53
2020/12/31 11:41:21;;;;;;;3.65;1.05;;;21.80;49.90;;;;;;4940193;29;20043;-49
2020/12/31 11:43:46;;;;;;;7.78;1.83;;;21.80;49.90;;;;;;4940152;29;20032;-50
2020/12/31 11:46:12;;;;;;;3.17;1.10;;;21.80;49.90;;;;;;4939019;29;20043;-51
2020/12/31 11:48:38;;;;;;;2.28;1.20;;;21.80;49.90;;;;;;4940088;29;20449;-50
2020/12/31 11:51:07;;;;;;;1.98;1.35;;;21.90;49.90;;;;;;4939748;29;20036;-55
2020/12/31 11:53:33;;;;;;;2.90;0.95;;;21.90;49.90;;;;;;4939844;29;20040;-48
2020/12/31 11:56:02;;;;;;;4.55;1.05;;;21.90;50.00;;;;;;4939771;29;20123;-50
2020/12/31 11:58:28;;;;;;;5.93;0.95;;;21.90;50.20;;;;;;4939595;29;20100;-47
2020/12/31 12:00:55;;;;;;;3.20;0.90;;;21.90;50.30;;;;;;4939872;29;20054;-53
2020/12/31 12:03:20;;;;;;;3.78;0.90;;;21.90;50.00;;;;;;4939818;29;20043;-50
2020/12/31 12:05:49;;;;;;;1.90;1.08;;;22.00;50.20;;;;;;4939593;29;20514;-50
2020/12/31 12:08:14;;;;;;;4.90;2.00;;;21.90;50.30;;;;;;4939793;29;20038;-51
2020/12/31 12:10:40;;;;;;;11.27;3.80;;;21.90;50.40;;;;;;4939662;29;20127;-50
2020/12/31 12:13:05;;;;;;;7.28;3.50;;;22.00;50.50;;;;;;4939593;29;20048;-51
2020/12/31 12:15:31;;;;;;;6.32;3.13;;;22.00;50.50;;;;;;4939247;29;20058;-50
2020/12/31 12:17:56;;;;;;;7.28;3.63;;;22.00;50.50;;;;;;4939561;29;20091;-54
2020/12/31 12:20:22;;;;;;;14.20;4.40;;;22.00;50.60;;;;;;4938806;29;20035;-51
2020/12/31 12:22:47;;;;;;;13.98;4.13;;;22.00;50.80;;;;;;4939891;29;20040;-51
2020/12/31 12:25:13;;;;;;;9.80;3.40;;;22.00;50.90;;;;;;4939558;29;20121;-47
2020/12/31 12:27:40;;;;;;;6.88;3.40;;;22.00;50.90;;;;;;4939703;29;20047;-52
2020/12/31 12:30:10;;;;;;;9.02;3.28;;;22.00;50.90;;;;;;4939402;29;20038;-50
2020/12/31 12:32:36;;;;;;;5.85;3.05;;;22.00;50.90;;;;;;4939447;29;20036;-49
2020/12/31 12:35:03;;;;;;;9.77;2.88;;;22.00;50.80;;;;;;4939030;29;20040;-52
2020/12/31 12:37:29;;;;;;;13.52;3.83;;;22.00;50.70;;;;;;4939192;29;20119;-55
2020/12/31 12:39:54;;;;;;;8.13;3.65;;;22.00;50.10;;;;;;4939515;29;20114;-52
2020/12/31 12:42:20;;;;;;;10.07;3.25;;;22.00;50.50;;;;;;4939429;29;20143;-54
2020/12/31 12:44:45;;;;;;;7.15;3.40;;;22.00;50.70;;;;;;4939000;29;20044;-49
2020/12/31 12:47:11;;;;;;;8.52;3.17;;;22.00;50.90;;;;;;4938806;29;20039;-50
2020/12/31 12:49:36;;;;;;;7.70;2.92;;;22.00;51.00;;;;;;4938743;29;20056;-55
2020/12/31 12:52:03;;;;;;;9.20;3.13;;;22.00;51.00;;;;;;4938567;29;20051;-54
2020/12/31 12:54:29;;;;;;;5.72;2.95;;;22.00;50.90;;;;;;4938532;29;20043;-52
2020/12/31 12:56:55;;;;;;;4.82;2.85;;;22.00;49.10;;;;;;4938407;29;20039;-47
2020/12/31 12:59:20;;;;;;;3.28;2.45;;;22.00;46.50;;;;;;4938705;29;20070;-54
2020/12/31 13:01:46;;;;;;;8.93;2.70;;;21.90;45.40;;;;;;4939183;29;20036;-55
2020/12/31 13:04:12;;;;;;;9.98;3.58;;;21.70;47.60;;;;;;4938692;29;20067;-48
2020/12/31 13:06:38;;;;;;;7.20;3.17;;;21.70;48.90;;;;;;4938348;29;20079;-52
2020/12/31 13:09:04;;;;;;;3.45;2.20;;;21.60;47.30;;;;;;4938299;29;20118;-54
2020/12/31 13:11:30;;;;;;;5.22;2.25;;;21.60;48.30;;;;;;4938632;29;20090;-52
2020/12/31 13:13:55;;;;;;;5.22;2.15;;;21.50;49.10;;;;;;4938544;29;20084;-48
2020/12/31 13:16:20;;;;;;;7.88;2.25;;;21.60;49.00;;;;;;4938194;29;20514;-54
2020/12/31 13:18:46;;;;;;;6.70;2.13;;;21.60;49.20;;;;;;4938500;29;20078;-53
2020/12/31 13:21:12;;;;;;;4.55;2.05;;;21.60;49.20;;;;;;4938731;29;20043;-54
2020/12/31 13:23:37;;;;;;;3.78;2.28;;;21.60;49.30;;;;;;4938409;29;20040;-53
2020/12/31 13:26:06;;;;;;;4.40;2.17;;;21.70;49.30;;;;;;4938166;29;20363;-47
2020/12/31 13:28:35;;;;;;;4.03;1.85;;;21.80;49.30;;;;;;4938280;29;20054;-51
2020/12/31 13:31:02;;;;;;;5.22;2.22;;;21.80;49.30;;;;;;4921972;29;20123;-52
2020/12/31 13:33:28;;;;;;;4.93;2.65;;;21.80;49.20;;;;;;4937950;29;20422;-49
2020/12/31 13:35:53;;;;;;;3.90;2.13;;;21.90;49.20;;;;;;4938459;29;20106;-54
2020/12/31 13:38:19;;;;;;;2.95;2.00;;;21.90;49.20;;;;;;4938186;29;20053;-56
2020/12/31 13:40:44;;;;;;;2.90;1.70;;;21.90;49.10;;;;;;4938591;29;20123;-56
2020/12/31 13:43:10;;;;;;;6.35;2.10;;;21.90;49.00;;;;;;4937822;29;20245;-52
2020/12/31 13:45:35;;;;;;;4.35;1.48;;;22.00;49.00;;;;;;4937620;29;20410;-51
2020/12/31 13:48:01;;;;;;;3.88;1.70;;;21.90;48.90;;;;;;4937985;29;20032;-54
2020/12/31 13:50:27;;;;;;;3.97;1.83;;;22.00;48.90;;;;;;4937819;29;20126;-53
2020/12/31 13:52:53;;;;;;;3.08;1.70;;;22.00;48.90;;;;;;4937915;29;20051;-53
2020/12/31 13:55:18;;;;;;;2.72;1.50;;;22.00;48.80;;;;;;4937878;29;20039;-54
2020/12/31 13:57:44;;;;;;;2.85;1.70;;;22.00;48.70;;;;;;4938014;29;20043;-55
2020/12/31 14:00:11;;;;;;;2.75;1.70;;;22.00;48.60;;;;;;4938123;29;20354;-53
2020/12/31 14:02:37;;;;;;;4.40;1.63;;;22.00;48.60;;;;;;4920788;29;20044;-51
2020/12/31 14:05:03;;;;;;;3.03;1.30;;;22.10;48.60;;;;;;4937722;29;20410;-54
2020/12/31 14:07:28;;;;;;;3.55;1.70;;;22.10;48.50;;;;;;4937478;29;20422;-53
2020/12/31 14:09:54;;;;;;;4.95;2.08;;;22.10;48.50;;;;;;4937473;29;20036;-54
2020/12/31 14:12:19;;;;;;;2.13;1.70;;;22.00;48.40;;;;;;4937748;29;20054;-53
2020/12/31 14:14:45;;;;;;;1.88;1.40;;;22.10;48.40;;;;;;4937978;29;20362;-51
2020/12/31 14:17:10;;;;;;;2.78;1.23;;;22.00;48.30;;;;;;4937741;29;20036;-51
2020/12/31 14:19:36;;;;;;;2.30;1.48;;;22.00;48.20;;;;;;4937573;29;20111;-49
2020/12/31 14:22:06;;;;;;;2.80;1.60;;;22.10;48.20;;;;;;4937614;29;20366;-54
2020/12/31 14:24:32;;;;;;;2.53;1.17;;;22.00;48.10;;;;;;4937418;29;20062;-52
2020/12/31 14:26:58;;;;;;;2.08;1.23;;;22.00;48.10;;;;;;4937504;29;20083;-53
2020/12/31 14:29:23;;;;;;;4.13;1.70;;;22.00;48.00;;;;;;4937622;29;20426;-52
2020/12/31 14:31:49;;;;;;;2.58;1.33;;;22.00;48.00;;;;;;4936950;29;20098;-54
2020/12/31 14:34:15;;;;;;;1.60;1.30;;;22.00;48.00;;;;;;4937518;29;20063;-50
2020/12/31 14:36:42;;;;;;;1.88;1.35;;;22.00;48.00;;;;;;4937464;29;20127;-53
2020/12/31 14:39:08;;;;;;;1.55;1.13;;;22.00;47.90;;;;;;4937505;29;20113;-55
2020/12/31 14:41:38;;;;;;;1.85;1.48;;;22.00;47.90;;;;;;4937401;29;20132;-52
2020/12/31 14:44:05;;;;;;;2.70;1.58;;;21.90;47.80;;;;;;4937087;29;20462;-50
2020/12/31 14:46:31;;;;;;;3.05;1.85;;;21.90;47.30;;;;;;4937102;29;20047;-51
2020/12/31 14:48:57;;;;;;;1.50;1.30;;;21.90;47.40;;;;;;4937780;29;20032;-62
2020/12/31 14:51:30;;;;;;;2.40;1.52;;;21.90;47.50;;;;;;4937184;29;20114;-51
2020/12/31 14:53:58;;;;;;;2.83;1.85;;;21.80;47.60;;;;;;4937322;29;20036;-48
2020/12/31 14:56:28;;;;;;;3.40;2.03;;;21.80;47.10;;;;;;4920525;29;20430;-51
2020/12/31 14:58:54;;;;;;;3.05;1.70;;;21.80;47.70;;;;;;4936820;29;20035;-52
2020/12/31 15:01:20;;;;;;;2.22;1.80;;;21.70;47.40;;;;;;4937167;29;20087;-52
2020/12/31 15:03:46;;;;;;;2.55;1.60;;;21.70;47.20;;;;;;4937261;29;20068;-53
2020/12/31 15:06:11;;;;;;;2.10;1.45;;;21.70;47.00;;;;;;4937161;29;20045;-53
2020/12/31 15:08:37;;;;;;;3.10;1.52;;;21.70;46.90;;;;;;4937454;29;20043;-50
2020/12/31 15:11:03;;;;;;;3.67;1.70;;;21.70;46.90;;;;;;4937023;29;20071;-52
2020/12/31 15:13:29;;;;;;;1.90;1.48;;;21.70;46.80;;;;;;4936794;29;20126;-48
2020/12/31 15:15:54;;;;;;;3.90;1.60;;;21.70;47.10;;;;;;4937046;29;20076;-49
2020/12/31 15:18:20;;;;;;;1.58;1.20;;;21.70;47.50;;;;;;4937449;29;20103;-52
2020/12/31 15:20:49;;;;;;;1.60;1.30;;;21.70;48.00;;;;;;4938268;29;20510;-51
2020/12/31 15:23:15;;;;;;;2.20;1.58;;;21.70;48.50;;;;;;4940742;29;20036;-55
2020/12/31 15:25:41;;;;;;;7.53;1.45;;;21.80;49.10;;;;;;4940658;29;20054;-54
2020/12/31 15:28:06;;;;;;;2.70;1.40;;;21.80;49.30;;;;;;4939473;29;20410;-55
2020/12/31 15:30:32;;;;;;;2.40;1.42;;;21.90;48.90;;;;;;4940036;29;20040;-55
2020/12/31 15:32:57;;;;;;;3.47;1.85;;;21.90;48.10;;;;;;4940222;29;20039;-54
2020/12/31 15:35:23;;;;;;;2.38;1.95;;;21.90;47.50;;;;;;4940370;29;20114;-54
2020/12/31 15:37:48;;;;;;;2.53;1.83;;;21.90;47.30;;;;;;4940428;29;20036;-55
2020/12/31 15:40:14;;;;;;;5.82;2.15;;;21.90;47.00;;;;;;4940311;29;20482;-52
2020/12/31 15:42:40;;;;;;;3.17;1.90;;;21.80;46.70;;;;;;4940061;29;20047;-54
2020/12/31 15:45:06;;;;;;;2.97;1.80;;;21.80;46.40;;;;;;4940248;29;20040;-47
2020/12/31 15:47:32;;;;;;;4.10;1.83;;;21.80;46.30;;;;;;4940434;29;20122;-52
2020/12/31 15:49:57;;;;;;;4.47;2.08;;;21.80;46.10;;;;;;4940265;29;20134;-53
2020/12/31 15:52:23;;;;;;;4.10;1.73;;;21.80;45.80;;;;;;4939989;29;20100;-54
2020/12/31 15:54:48;;;;;;;2.33;1.60;;;21.80;46.50;;;;;;4940049;29;20032;-54
2020/12/31 15:57:14;;;;;;;4.40;1.40;;;21.70;46.00;;;;;;4939579;29;20040;-47
2020/12/31 15:59:40;;;;;;;5.40;1.80;;;21.70;47.00;;;;;;4940043;29;20123;-49
2020/12/31 16:02:08;;;;;;;4.47;1.50;;;21.70;47.30;;;;;;4940010;29;20039;-48
2020/12/31 16:04:34;;;;;;;2.33;1.40;;;21.80;47.60;;;;;;4939886;29;20443;-49
2020/12/31 16:07:00;;;;;;;3.90;1.92;;;21.80;47.60;;;;;;4939965;29;20044;-50
2020/12/31 16:09:25;;;;;;;8.13;2.00;;;21.90;47.60;;;;;;4939846;29;20091;-48
2020/12/31 16:11:51;;;;;;;3.53;1.70;;;21.90;47.70;;;;;;4939655;29;20048;-47
2020/12/31 16:14:17;;;;;;;3.45;1.83;;;21.90;47.90;;;;;;4939472;29;20375;-48
2020/12/31 16:16:48;;;;;;;4.15;1.63;;;22.00;48.00;;;;;;4939759;29;20035;-47
2020/12/31 16:19:13;;;;;;;2.90;1.48;;;22.10;48.20;;;;;;4939546;29;20346;-48
2020/12/31 16:21:38;;;;;;;2.63;1.60;;;22.10;48.20;;;;;;4939713;29;20035;-48
2020/12/31 16:24:05;;;;;;;4.40;1.30;;;22.20;48.40;;;;;;4939617;29;20046;-53
2020/12/31 16:26:30;;;;;;;5.82;1.38;;;22.30;48.50;;;;;;4938764;29;20056;-47
2020/12/31 16:28:55;;;;;;;2.53;1.65;;;22.30;48.70;;;;;;4939278;29;20324;-49
2020/12/31 16:31:23;;;;;;;4.43;1.73;;;22.40;48.80;;;;;;4938986;29;20047;-47
2020/12/31 16:33:49;;;;;;;2.42;1.42;;;22.40;48.90;;;;;;4938698;29;20035;-49
2020/12/31 16:36:15;;;;;;;2.63;1.48;;;22.50;48.90;;;;;;4939305;29;20336;-49
2020/12/31 16:38:40;;;;;;;1.40;1.17;;;22.50;48.90;;;;;;4939199;29;20050;-47
2020/12/31 16:41:06;;;;;;;2.78;1.58;;;22.50;49.00;;;;;;4938972;29;20130;-47
2020/12/31 16:43:31;;;;;;;2.47;1.45;;;22.50;49.00;;;;;;4938946;29;20039;-47
2020/12/31 16:45:57;;;;;;;4.38;1.58;;;22.60;49.10;;;;;;4939302;29;20039;-47
2020/12/31 16:48:22;;;;;;;4.20;1.85;;;22.60;49.20;;;;;;4938960;29;20071;-46
2020/12/31 16:50:48;;;;;;;1.95;1.65;;;22.60;49.20;;;;;;4938958;29;20122;-47
2020/12/31 16:53:13;;;;;;;2.33;1.60;;;22.60;49.20;;;;;;4939262;29;20035;-48
2020/12/31 16:55:39;;;;;;;2.22;1.52;;;22.60;49.20;;;;;;4939626;29;20087;-47
2020/12/31 16:58:04;;;;;;;3.20;1.48;;;22.60;49.20;;;;;;4938908;29;20045;-46
2020/12/31 17:00:30;;;;;;;3.33;1.90;;;22.60;49.20;;;;;;4938830;29;20032;-47
2020/12/31 17:02:55;;;;;;;1.58;1.40;;;22.60;49.30;;;;;;4938878;29;20031;-49
2020/12/31 17:05:21;;;;;;;3.20;1.67;;;22.60;49.30;;;;;;4938958;29;20039;-47
2020/12/31 17:07:47;;;;;;;3.28;1.58;;;22.60;49.30;;;;;;4938749;29;20028;-47
2020/12/31 17:10:12;;;;;;;3.05;1.58;;;22.60;49.40;;;;;;4938627;29;20046;-45
2020/12/31 17:12:38;;;;;;;3.30;1.50;;;22.60;49.40;;;;;;4938690;29;20355;-48
2020/12/31 17:15:04;;;;;;;1.65;1.40;;;22.50;49.40;;;;;;4939006;29;20103;-46
2020/12/31 17:17:30;;;;;;;2.35;1.75;;;22.50;49.40;;;;;;4938474;29;20468;-46
2020/12/31 17:19:55;;;;;;;6.90;2.22;;;22.50;49.30;;;;;;4938814;29;20107;-44
2020/12/31 17:22:21;;;;;;;3.03;2.20;;;22.50;49.30;;;;;;4938612;29;20072;-49
2020/12/31 17:24:46;;;;;;;4.28;2.28;;;22.50;48.90;;;;;;4938255;29;20036;-47
2020/12/31 17:27:12;;;;;;;3.17;2.75;;;22.50;48.60;;;;;;4938434;29;20039;-48
2020/12/31 17:29:37;;;;;;;6.10;2.70;;;22.50;47.60;;;;;;4938334;29;20050;-53
2020/12/31 17:32:03;;;;;;;4.95;3.42;;;22.50;47.10;;;;;;4938270;29;20047;-53
2020/12/31 17:34:28;;;;;;;3.90;3.42;;;22.40;46.70;;;;;;4937981;29;20110;-53
2020/12/31 17:36:55;;;;;;;4.63;3.05;;;22.40;46.90;;;;;;4938169;29;20110;-53
2020/12/31 17:39:20;;;;;;;3.45;3.15;;;22.30;46.50;;;;;;4938210;29;20067;-52
2020/12/31 17:41:47;;;;;;;5.75;3.80;;;22.30;46.30;;;;;;4938263;29;20487;-52
2020/12/31 17:44:14;;;;;;;8.65;3.78;;;22.20;46.10;;;;;;4937450;29;20446;-49
2020/12/31 17:46:40;;;;;;;6.38;3.30;;;22.20;46.00;;;;;;4937869;29;20048;-48
2020/12/31 17:49:06;;;;;;;7.82;3.97;;;22.10;46.20;;;;;;4938158;29;20031;-50
2020/12/31 17:51:31;;;;;;;4.88;3.92;;;22.10;45.80;;;;;;4937643;29;20051;-47
2020/12/31 17:53:57;;;;;;;4.55;3.72;;;22.10;45.60;;;;;;4937564;29;20043;-50
2020/12/31 17:56:22;;;;;;;5.93;4.43;;;22.00;46.00;;;;;;4937573;29;20039;-49
2020/12/31 17:58:48;;;;;;;5.10;4.40;;;22.00;46.00;;;;;;4937860;29;20042;-46
2020/12/31 18:01:21;;;;;;;5.78;4.28;;;22.00;45.90;;;;;;4937950;29;20040;-48
2020/12/31 18:03:46;;;;;;;7.53;4.38;;;22.10;46.00;;;;;;4937684;29;20413;-49
2020/12/31 18:06:12;;;;;;;5.68;4.70;;;22.00;46.10;;;;;;4938010;29;20095;-49
2020/12/31 18:08:37;;;;;;;7.63;6.32;;;22.00;45.40;;;;;;4937268;29;20036;-48
2020/12/31 18:11:03;;;;;;;7.00;5.72;;;21.90;42.10;;;;;;4937747;29;20048;-52
2020/12/31 18:13:29;;;;;;;8.40;5.28;;;21.80;42.90;;;;;;4937413;29;20056;-49
2020/12/31 18:15:55;;;;;;;6.88;5.40;;;21.70;44.80;;;;;;4937294;29;20457;-46
2020/12/31 18:18:20;;;;;;;8.63;4.63;;;21.70;45.80;;;;;;4937810;29;20126;-50
2020/12/31 18:20:46;;;;;;;7.75;5.35;;;21.60;45.80;;;;;;4937616;29;20443;-46
2020/12/31 18:23:12;;;;;;;6.50;5.20;;;21.70;45.60;;;;;;4937354;29;20510;-49
2020/12/31 18:25:40;;;;;;;7.45;5.15;;;21.70;45.30;;;;;;4937174;29;20099;-47
2020/12/31 18:28:06;;;;;;;10.38;5.22;;;21.80;45.40;;;;;;4937293;29;20474;-49
2020/12/31 18:30:31;;;;;;;14.68;5.50;;;21.70;45.90;;;;;;4937522;29;20040;-47
2020/12/31 18:32:57;;;;;;;7.47;5.53;;;21.80;46.10;;;;;;4937241;29;20060;-47
2020/12/31 18:35:22;;;;;;;8.05;5.55;;;21.80;45.90;;;;;;4937261;29;20123;-47
2020/12/31 18:37:48;;;;;;;8.73;5.70;;;21.80;45.60;;;;;;4937263;29;20040;-46
2020/12/31 18:40:14;;;;;;;7.40;4.85;;;21.90;45.60;;;;;;4937495;29;20043;-46
2020/12/31 18:42:44;;;;;;;11.95;5.78;;;21.90;45.60;;;;;;4937455;29;20039;-46
2020/12/31 18:45:16;;;;;;;8.77;5.93;;;21.90;45.50;;;;;;4937598;29;20040;-48
2020/12/31 18:47:43;;;;;;;11.00;6.97;;;21.90;45.60;;;;;;4937342;29;20130;-45
2020/12/31 18:50:13;;;;;;;16.20;8.05;;;22.00;45.70;;;;;;4937157;29;20035;-49
2020/12/31 18:52:39;;;;;;;13.05;7.60;;;22.00;45.70;;;;;;4937389;29;20055;-47
2020/12/31 18:55:06;;;;;;;16.17;8.63;;;22.00;45.60;;;;;;4937160;29;20110;-47
2020/12/31 18:57:32;;;;;;;17.90;8.65;;;22.00;45.40;;;;;;4941332;29;20465;-46
2020/12/31 18:59:58;;;;;;;22.25;9.52;;;22.00;45.10;;;;;;4940643;29;20114;-47
2020/12/31 19:02:23;;;;;;;32.20;12.23;;;22.00;45.10;;;;;;4940789;29;20047;-48
2020/12/31 19:04:49;;;;;;;32.42;13.52;;;22.10;45.70;;;;;;4940905;29;20036;-46
2020/12/31 19:07:15;;;;;;;35.53;13.75;;;22.10;45.70;;;;;;4940629;29;20036;-48
2020/12/31 19:09:41;;;;;;;42.15;14.45;;;22.10;45.30;;;;;;4940558;29;20050;-48
2020/12/31 19:12:07;;;;;;;34.88;12.88;;;22.10;45.40;;;;;;4941167;29;20139;-48
2020/12/31 19:14:33;;;;;;;30.25;12.50;;;22.10;46.50;;;;;;4940655;29;20363;-46
2020/12/31 19:16:59;;;;;;;35.22;11.70;;;22.20;47.10;;;;;;4940115;29;20036;-46
2020/12/31 19:19:25;;;;;;;31.35;11.95;;;22.20;47.60;;;;;;4940217;29;20482;-46
2020/12/31 19:21:50;;;;;;;37.10;13.43;;;22.30;48.10;;;;;;4941054;29;20032;-47
2020/12/31 19:24:16;;;;;;;34.38;12.25;;;22.40;48.50;;;;;;4940707;29;20036;-46
2020/12/31 19:26:43;;;;;;;26.48;10.80;;;22.50;48.80;;;;;;4940199;29;20066;-47
2020/12/31 19:29:09;;;;;;;29.08;11.32;;;22.50;49.00;;;;;;4939701;29;20063;-46
2020/12/31 19:31:36;;;;;;;31.73;10.75;;;22.50;49.20;;;;;;4940489;29;20406;-47
2020/12/31 19:34:06;;;;;;;30.08;11.43;;;22.60;49.40;;;;;;4940424;29;20039;-47
2020/12/31 19:36:34;;;;;;;30.08;11.13;;;22.70;49.50;;;;;;4940239;29;20455;-49
2020/12/31 19:38:59;;;;;;;28.77;10.68;;;22.70;49.80;;;;;;4940209;29;20035;-46
2020/12/31 19:41:25;;;;;;;30.98;10.55;;;22.80;50.10;;;;;;4940290;29;20043;-46
2020/12/31 19:43:51;;;;;;;24.55;9.30;;;22.80;50.20;;;;;;4940344;29;20040;-47
2020/12/31 19:46:18;;;;;;;34.63;12.98;;;22.80;50.40;;;;;;4939998;29;20465;-48
2020/12/31 19:48:45;;;;;;;37.60;13.73;;;22.80;50.70;;;;;;4939856;29;20447;-48
2020/12/31 19:51:11;;;;;;;36.03;13.20;;;22.90;50.90;;;;;;4939940;29;20047;-49
2020/12/31 19:53:36;;;;;;;44.95;13.60;;;22.90;51.20;;;;;;4940058;29;20043;-47
2020/12/31 19:56:05;;;;;;;35.05;12.73;;;22.90;51.30;;;;;;4940274;29;20451;-52
2020/12/31 19:58:30;;;;;;;39.15;14.48;;;22.90;51.60;;;;;;4940059;29;20050;-49
2020/12/31 20:00:56;;;;;;;36.15;13.43;;;23.00;51.50;;;;;;4939915;29;20371;-51
2020/12/31 20:03:21;;;;;;;31.00;11.65;;;23.00;51.20;;;;;;4939764;29;20064;-47
2020/12/31 20:05:47;;;;;;;33.38;11.38;;;22.90;51.00;;;;;;4940255;29;20039;-47
2020/12/31 20:08:12;;;;;;;32.63;11.55;;;23.00;51.20;;;;;;4938974;29;20450;-51
2020/12/31 20:10:38;;;;;;;25.65;10.30;;;23.00;51.50;;;;;;4939455;29;20039;-50
2020/12/31 20:13:03;;;;;;;33.67;11.38;;;23.00;51.60;;;;;;4939713;29;20043;-48
2020/12/31 20:15:29;;;;;;;25.55;9.88;;;23.00;51.60;;;;;;4939551;29;20355;-48
2020/12/31 20:17:54;;;;;;;31.83;10.05;;;23.10;51.60;;;;;;4939483;29;20032;-50
2020/12/31 20:20:20;;;;;;;26.10;10.55;;;23.10;51.70;;;;;;4940003;29;20144;-48
2020/12/31 20:22:45;;;;;;;28.80;10.77;;;23.10;51.60;;;;;;4939436;29;20366;-47
2020/12/31 20:25:12;;;;;;;26.33;9.52;;;23.10;51.60;;;;;;4939297;29;20048;-49
2020/12/31 20:27:38;;;;;;;23.55;9.82;;;23.10;51.60;;;;;;4939377;29;20119;-47
2020/12/31 20:30:05;;;;;;;24.92;9.68;;;23.10;51.50;;;;;;4939518;29;20078;-48
2020/12/31 20:32:31;;;;;;;28.02;10.13;;;23.10;51.50;;;;;;4939044;29;20044;-48
2020/12/31 20:34:56;;;;;;;21.45;8.63;;;23.10;51.40;;;;;;4939192;29;20474;-46
2020/12/31 20:37:22;;;;;;;24.10;9.50;;;23.10;51.40;;;;;;4939015;29;20064;-48
2020/12/31 20:39:47;;;;;;;22.90;9.35;;;23.20;51.40;;;;;;4939384;29;20470;-48
2020/12/31 20:42:13;;;;;;;21.85;8.82;;;23.20;51.30;;;;;;4939179;29;20103;-47
2020/12/31 20:44:40;;;;;;;21.85;8.30;;;23.10;51.30;;;;;;4939038;29;20039;-45
2020/12/31 20:47:05;;;;;;;26.45;8.93;;;23.20;51.40;;;;;;4938785;29;20458;-48
2020/12/31 20:49:31;;;;;;;19.88;8.57;;;23.20;51.20;;;;;;4939257;29;20043;-46
2020/12/31 20:51:56;;;;;;;23.35;8.05;;;23.20;51.20;;;;;;4938902;29;20051;-45
2020/12/31 20:54:22;;;;;;;16.73;8.10;;;23.20;51.20;;;;;;4939202;29;20036;-47
2020/12/31 20:57:04;;;;;;;20.63;8.50;;;23.20;51.30;;;;;;4939043;29;20179;-47
2020/12/31 20:59:34;;;;;;;24.23;7.65;;;23.20;51.30;;;;;;4939274;29;20040;-48